sensor_id;sensor_type;location;lat;lon;timestamp;P1;durP1;ratioP1;P2;durP2;ratioP2
12597;SDS011;6364;53.590;9.956;2023-02-04T00:00:39;3.40;;;1.35;;
12597;SDS011;6364;53.590;9.956;2023-02-04T00:03:05;1.77;;;1.30;;
12597;SDS011;6364;53.590;9.956;2023-02-04T00:05:30;3.08;;;1.10;;
12597;SDS011;6364;53.590;9.956;2023-02-04T00:07:56;8.75;;;1.40;;
12597;SDS011;6364;53.590;9.956;2023-02-04T00:10:21;4.22;;;1.38;;
12597;SDS011;6364;53.590;9.956;2023-02-04T00:12:47;3.67;;;1.20;;
12597;SDS011;6364;53.590;9.956;2023-02-04T00:15:12;2.78;;;1.10;;
12597;SDS011;6364;53.590;9.956;2023-02-04T00:17:37;2.75;;;1.30;;
12597;SDS011;6364;53.590;9.956;2023-02-04T00:20:03;1.25;;;1.10;;
12597;SDS011;6364;53.590;9.956;2023-02-04T00:22:29;2.72;;;1.27;;
12597;SDS011;6364;53.590;9.956;2023-02-04T00:24:54;2.90;;;1.17;;
12597;SDS011;6364;53.590;9.956;2023-02-04T00:27:20;3.15;;;1.40;;
12597;SDS011;6364;53.590;9.956;2023-02-04T00:29:46;4.35;;;1.38;;
12597;SDS011;6364;53.590;9.956;2023-02-04T00:32:11;2.55;;;1.40;;
12597;SDS011;6364;53.590;9.956;2023-02-04T00:34:36;2.10;;;1.00;;
12597;SDS011;6364;53.590;9.956;2023-02-04T00:37:02;5.28;;;1.30;;
12597;SDS011;6364;53.590;9.956;2023-02-04T00:39:27;3.55;;;1.45;;
12597;SDS011;6364;53.590;9.956;2023-02-04T00:41:53;3.83;;;1.70;;
12597;SDS011;6364;53.590;9.956;2023-02-04T00:44:18;3.00;;;1.35;;
12597;SDS011;6364;53.590;9.956;2023-02-04T00:46:44;3.50;;;1.40;;
12597;SDS011;6364;53.590;9.956;2023-02-04T00:49:09;2.78;;;1.70;;
12597;SDS011;6364;53.590;9.956;2023-02-04T00:51:36;1.77;;;1.40;;
12597;SDS011;6364;53.590;9.956;2023-02-04T00:54:02;1.70;;;1.13;;
12597;SDS011;6364;53.590;9.956;2023-02-04T00:56:28;2.65;;;1.55;;
12597;SDS011;6364;53.590;9.956;2023-02-04T00:58:53;1.88;;;1.38;;
12597;SDS011;6364;53.590;9.956;2023-02-04T01:01:19;2.45;;;1.20;;
12597;SDS011;6364;53.590;9.956;2023-02-04T01:03:44;7.13;;;1.80;;
12597;SDS011;6364;53.590;9.956;2023-02-04T01:06:10;4.95;;;1.92;;
12597;SDS011;6364;53.590;9.956;2023-02-04T01:08:37;4.90;;;1.70;;
12597;SDS011;6364;53.590;9.956;2023-02-04T01:11:02;4.70;;;1.80;;
12597;SDS011;6364;53.590;9.956;2023-02-04T01:13:28;3.08;;;1.67;;
12597;SDS011;6364;53.590;9.956;2023-02-04T01:15:53;3.63;;;1.70;;
12597;SDS011;6364;53.590;9.956;2023-02-04T01:18:18;5.25;;;1.60;;
12597;SDS011;6364;53.590;9.956;2023-02-04T01:20:44;2.05;;;1.35;;
12597;SDS011;6364;53.590;9.956;2023-02-04T01:23:09;2.58;;;1.60;;
12597;SDS011;6364;53.590;9.956;2023-02-04T01:25:34;6.00;;;1.70;;
12597;SDS011;6364;53.590;9.956;2023-02-04T01:28:00;4.82;;;1.80;;
12597;SDS011;6364;53.590;9.956;2023-02-04T01:30:25;3.13;;;1.73;;
12597;SDS011;6364;53.590;9.956;2023-02-04T01:32:50;2.53;;;1.63;;
12597;SDS011;6364;53.590;9.956;2023-02-04T01:35:16;3.60;;;1.70;;
12597;SDS011;6364;53.590;9.956;2023-02-04T01:37:41;4.80;;;1.98;;
12597;SDS011;6364;53.590;9.956;2023-02-04T01:40:07;3.63;;;1.55;;
12597;SDS011;6364;53.590;9.956;2023-02-04T01:42:33;3.65;;;1.60;;
12597;SDS011;6364;53.590;9.956;2023-02-04T01:44:59;5.57;;;1.70;;
12597;SDS011;6364;53.590;9.956;2023-02-04T01:47:24;3.92;;;1.73;;
12597;SDS011;6364;53.590;9.956;2023-02-04T01:49:50;3.72;;;2.13;;
12597;SDS011;6364;53.590;9.956;2023-02-04T01:52:17;1.67;;;1.58;;
12597;SDS011;6364;53.590;9.956;2023-02-04T01:54:42;2.50;;;2.00;;
12597;SDS011;6364;53.590;9.956;2023-02-04T01:57:12;2.42;;;1.48;;
12597;SDS011;6364;53.590;9.956;2023-02-04T01:59:39;5.32;;;1.90;;
12597;SDS011;6364;53.590;9.956;2023-02-04T02:05:13;2.17;;;1.60;;
12597;SDS011;6364;53.590;9.956;2023-02-04T02:07:41;5.72;;;1.88;;
12597;SDS011;6364;53.590;9.956;2023-02-04T02:10:07;3.17;;;1.85;;
12597;SDS011;6364;53.590;9.956;2023-02-04T02:12:33;4.38;;;1.58;;
12597;SDS011;6364;53.590;9.956;2023-02-04T02:14:58;4.55;;;1.70;;
12597;SDS011;6364;53.590;9.956;2023-02-04T02:17:24;3.47;;;2.10;;
12597;SDS011;6364;53.590;9.956;2023-02-04T02:19:49;2.47;;;1.75;;
12597;SDS011;6364;53.590;9.956;2023-02-04T02:22:25;5.13;;;1.75;;
12597;SDS011;6364;53.590;9.956;2023-02-04T02:24:52;4.80;;;2.05;;
12597;SDS011;6364;53.590;9.956;2023-02-04T02:27:17;2.58;;;1.67;;
12597;SDS011;6364;53.590;9.956;2023-02-04T02:29:43;4.57;;;1.88;;
12597;SDS011;6364;53.590;9.956;2023-02-04T02:32:09;2.65;;;1.67;;
12597;SDS011;6364;53.590;9.956;2023-02-04T02:34:35;3.47;;;1.88;;
12597;SDS011;6364;53.590;9.956;2023-02-04T02:37:01;4.47;;;1.70;;
12597;SDS011;6364;53.590;9.956;2023-02-04T02:39:27;2.80;;;1.75;;
12597;SDS011;6364;53.590;9.956;2023-02-04T02:41:53;2.50;;;1.70;;
12597;SDS011;6364;53.590;9.956;2023-02-04T02:44:19;3.78;;;1.95;;
12597;SDS011;6364;53.590;9.956;2023-02-04T02:46:45;3.58;;;1.85;;
12597;SDS011;6364;53.590;9.956;2023-02-04T02:49:12;5.15;;;1.75;;
12597;SDS011;6364;53.590;9.956;2023-02-04T02:51:40;3.03;;;2.00;;
12597;SDS011;6364;53.590;9.956;2023-02-04T02:54:07;2.55;;;1.65;;
12597;SDS011;6364;53.590;9.956;2023-02-04T02:56:53;3.55;;;1.70;;
12597;SDS011;6364;53.590;9.956;2023-02-04T02:59:18;3.50;;;1.60;;
12597;SDS011;6364;53.590;9.956;2023-02-04T03:01:44;2.35;;;1.80;;
12597;SDS011;6364;53.590;9.956;2023-02-04T03:04:12;7.90;;;2.10;;
12597;SDS011;6364;53.590;9.956;2023-02-04T03:06:37;4.30;;;2.28;;
12597;SDS011;6364;53.590;9.956;2023-02-04T03:09:03;6.40;;;1.88;;
12597;SDS011;6364;53.590;9.956;2023-02-04T03:11:29;4.15;;;1.80;;
12597;SDS011;6364;53.590;9.956;2023-02-04T03:13:56;3.88;;;2.00;;
12597;SDS011;6364;53.590;9.956;2023-02-04T03:16:24;3.05;;;2.03;;
12597;SDS011;6364;53.590;9.956;2023-02-04T03:18:50;4.60;;;2.35;;
12597;SDS011;6364;53.590;9.956;2023-02-04T03:21:16;4.68;;;2.22;;
12597;SDS011;6364;53.590;9.956;2023-02-04T03:23:41;4.63;;;2.30;;
12597;SDS011;6364;53.590;9.956;2023-02-04T03:26:07;3.17;;;2.20;;
12597;SDS011;6364;53.590;9.956;2023-02-04T03:28:32;3.60;;;2.10;;
12597;SDS011;6364;53.590;9.956;2023-02-04T03:30:58;3.88;;;2.50;;
12597;SDS011;6364;53.590;9.956;2023-02-04T03:33:25;7.72;;;2.50;;
12597;SDS011;6364;53.590;9.956;2023-02-04T03:35:55;7.00;;;2.67;;
12597;SDS011;6364;53.590;9.956;2023-02-04T03:38:21;5.20;;;2.55;;
12597;SDS011;6364;53.590;9.956;2023-02-04T03:40:46;5.85;;;2.53;;
12597;SDS011;6364;53.590;9.956;2023-02-04T03:43:12;6.25;;;2.60;;
12597;SDS011;6364;53.590;9.956;2023-02-04T03:45:37;8.60;;;2.70;;
12597;SDS011;6364;53.590;9.956;2023-02-04T03:48:02;3.97;;;2.50;;
12597;SDS011;6364;53.590;9.956;2023-02-04T03:50:28;5.97;;;2.55;;
12597;SDS011;6364;53.590;9.956;2023-02-04T03:52:53;6.10;;;2.97;;
12597;SDS011;6364;53.590;9.956;2023-02-04T03:55:19;4.95;;;3.00;;
12597;SDS011;6364;53.590;9.956;2023-02-04T03:57:44;7.35;;;3.28;;
12597;SDS011;6364;53.590;9.956;2023-02-04T04:00:10;6.80;;;3.08;;
12597;SDS011;6364;53.590;9.956;2023-02-04T04:02:36;6.13;;;3.08;;
12597;SDS011;6364;53.590;9.956;2023-02-04T04:05:01;5.28;;;3.05;;
12597;SDS011;6364;53.590;9.956;2023-02-04T04:07:27;7.47;;;3.38;;
12597;SDS011;6364;53.590;9.956;2023-02-04T04:09:52;5.55;;;3.03;;
12597;SDS011;6364;53.590;9.956;2023-02-04T04:12:17;9.70;;;4.10;;
12597;SDS011;6364;53.590;9.956;2023-02-04T04:14:43;6.30;;;3.30;;
12597;SDS011;6364;53.590;9.956;2023-02-04T04:17:08;5.72;;;3.40;;
12597;SDS011;6364;53.590;9.956;2023-02-04T04:19:33;8.65;;;3.72;;
12597;SDS011;6364;53.590;9.956;2023-02-04T04:21:59;8.07;;;3.60;;
12597;SDS011;6364;53.590;9.956;2023-02-04T04:24:24;7.55;;;3.30;;
12597;SDS011;6364;53.590;9.956;2023-02-04T04:26:50;5.18;;;3.17;;
12597;SDS011;6364;53.590;9.956;2023-02-04T04:29:15;4.72;;;3.10;;
12597;SDS011;6364;53.590;9.956;2023-02-04T04:31:41;7.82;;;3.45;;
12597;SDS011;6364;53.590;9.956;2023-02-04T04:34:06;3.85;;;3.08;;
12597;SDS011;6364;53.590;9.956;2023-02-04T04:36:31;4.50;;;3.20;;
12597;SDS011;6364;53.590;9.956;2023-02-04T04:38:57;5.13;;;3.35;;
12597;SDS011;6364;53.590;9.956;2023-02-04T04:41:22;5.70;;;3.30;;
12597;SDS011;6364;53.590;9.956;2023-02-04T04:43:47;10.65;;;3.55;;
12597;SDS011;6364;53.590;9.956;2023-02-04T04:46:13;8.38;;;3.75;;
12597;SDS011;6364;53.590;9.956;2023-02-04T04:48:38;9.32;;;3.35;;
12597;SDS011;6364;53.590;9.956;2023-02-04T04:51:04;7.70;;;3.92;;
12597;SDS011;6364;53.590;9.956;2023-02-04T04:53:29;8.18;;;3.95;;
12597;SDS011;6364;53.590;9.956;2023-02-04T04:55:54;4.97;;;3.33;;
12597;SDS011;6364;53.590;9.956;2023-02-04T04:58:20;7.05;;;3.80;;
12597;SDS011;6364;53.590;9.956;2023-02-04T05:00:45;6.90;;;3.53;;
12597;SDS011;6364;53.590;9.956;2023-02-04T05:03:10;8.73;;;3.60;;
12597;SDS011;6364;53.590;9.956;2023-02-04T05:05:36;5.22;;;3.22;;
12597;SDS011;6364;53.590;9.956;2023-02-04T05:08:05;6.07;;;3.50;;
12597;SDS011;6364;53.590;9.956;2023-02-04T05:10:31;8.70;;;3.40;;
12597;SDS011;6364;53.590;9.956;2023-02-04T05:12:56;7.07;;;3.50;;
12597;SDS011;6364;53.590;9.956;2023-02-04T05:15:22;6.03;;;3.72;;
12597;SDS011;6364;53.590;9.956;2023-02-04T05:17:47;4.32;;;3.15;;
12597;SDS011;6364;53.590;9.956;2023-02-04T05:20:12;6.13;;;3.33;;
12597;SDS011;6364;53.590;9.956;2023-02-04T05:22:38;5.90;;;3.67;;
12597;SDS011;6364;53.590;9.956;2023-02-04T05:25:03;5.30;;;3.22;;
12597;SDS011;6364;53.590;9.956;2023-02-04T05:27:28;5.38;;;3.25;;
12597;SDS011;6364;53.590;9.956;2023-02-04T05:29:54;8.20;;;3.50;;
12597;SDS011;6364;53.590;9.956;2023-02-04T05:32:19;4.20;;;3.40;;
12597;SDS011;6364;53.590;9.956;2023-02-04T05:34:44;7.78;;;3.47;;
12597;SDS011;6364;53.590;9.956;2023-02-04T05:37:10;8.45;;;3.80;;
12597;SDS011;6364;53.590;9.956;2023-02-04T05:39:35;5.38;;;3.38;;
12597;SDS011;6364;53.590;9.956;2023-02-04T05:42:00;9.35;;;3.83;;
12597;SDS011;6364;53.590;9.956;2023-02-04T05:44:26;8.73;;;3.30;;
12597;SDS011;6364;53.590;9.956;2023-02-04T05:46:51;6.88;;;3.53;;
12597;SDS011;6364;53.590;9.956;2023-02-04T05:49:16;5.13;;;3.40;;
12597;SDS011;6364;53.590;9.956;2023-02-04T05:51:42;8.70;;;3.80;;
12597;SDS011;6364;53.590;9.956;2023-02-04T05:54:07;6.88;;;3.70;;
12597;SDS011;6364;53.590;9.956;2023-02-04T05:56:32;5.43;;;3.58;;
12597;SDS011;6364;53.590;9.956;2023-02-04T05:58:58;6.20;;;3.35;;
12597;SDS011;6364;53.590;9.956;2023-02-04T06:01:23;7.05;;;3.70;;
12597;SDS011;6364;53.590;9.956;2023-02-04T06:03:48;6.72;;;3.42;;
12597;SDS011;6364;53.590;9.956;2023-02-04T06:06:13;10.52;;;3.60;;
12597;SDS011;6364;53.590;9.956;2023-02-04T06:08:39;5.13;;;3.40;;
12597;SDS011;6364;53.590;9.956;2023-02-04T06:11:04;7.40;;;4.05;;
12597;SDS011;6364;53.590;9.956;2023-02-04T06:13:29;8.82;;;3.90;;
12597;SDS011;6364;53.590;9.956;2023-02-04T06:15:55;6.82;;;3.88;;
12597;SDS011;6364;53.590;9.956;2023-02-04T06:18:20;9.20;;;3.90;;
12597;SDS011;6364;53.590;9.956;2023-02-04T06:20:45;8.75;;;3.92;;
12597;SDS011;6364;53.590;9.956;2023-02-04T06:23:11;13.82;;;4.45;;
12597;SDS011;6364;53.590;9.956;2023-02-04T06:25:36;8.52;;;4.07;;
12597;SDS011;6364;53.590;9.956;2023-02-04T06:28:01;8.98;;;3.80;;
12597;SDS011;6364;53.590;9.956;2023-02-04T06:30:27;10.98;;;4.97;;
12597;SDS011;6364;53.590;9.956;2023-02-04T06:32:52;7.13;;;4.47;;
12597;SDS011;6364;53.590;9.956;2023-02-04T06:35:17;5.93;;;3.85;;
12597;SDS011;6364;53.590;9.956;2023-02-04T06:37:43;6.47;;;4.40;;
12597;SDS011;6364;53.590;9.956;2023-02-04T06:40:09;11.00;;;4.38;;
12597;SDS011;6364;53.590;9.956;2023-02-04T06:42:34;7.85;;;4.55;;
12597;SDS011;6364;53.590;9.956;2023-02-04T06:45:00;8.27;;;4.50;;
12597;SDS011;6364;53.590;9.956;2023-02-04T06:47:25;9.00;;;4.35;;
12597;SDS011;6364;53.590;9.956;2023-02-04T06:49:50;5.80;;;3.75;;
12597;SDS011;6364;53.590;9.956;2023-02-04T06:52:16;7.53;;;4.50;;
12597;SDS011;6364;53.590;9.956;2023-02-04T06:54:41;9.20;;;4.70;;
12597;SDS011;6364;53.590;9.956;2023-02-04T06:57:06;9.77;;;5.05;;
12597;SDS011;6364;53.590;9.956;2023-02-04T06:59:35;10.45;;;5.78;;
12597;SDS011;6364;53.590;9.956;2023-02-04T07:02:02;8.50;;;4.90;;
12597;SDS011;6364;53.590;9.956;2023-02-04T07:04:28;10.45;;;5.82;;
12597;SDS011;6364;53.590;9.956;2023-02-04T07:06:53;10.85;;;5.68;;
12597;SDS011;6364;53.590;9.956;2023-02-04T07:09:19;11.73;;;6.20;;
12597;SDS011;6364;53.590;9.956;2023-02-04T07:11:44;8.55;;;5.93;;
12597;SDS011;6364;53.590;9.956;2023-02-04T07:14:09;8.02;;;5.85;;
12597;SDS011;6364;53.590;9.956;2023-02-04T07:16:35;13.77;;;6.63;;
12597;SDS011;6364;53.590;9.956;2023-02-04T07:19:01;10.90;;;6.10;;
12597;SDS011;6364;53.590;9.956;2023-02-04T07:21:26;10.77;;;5.75;;
12597;SDS011;6364;53.590;9.956;2023-02-04T07:23:51;9.60;;;5.68;;
12597;SDS011;6364;53.590;9.956;2023-02-04T07:26:17;9.38;;;5.53;;
12597;SDS011;6364;53.590;9.956;2023-02-04T07:28:42;14.98;;;6.05;;
12597;SDS011;6364;53.590;9.956;2023-02-04T07:31:08;13.30;;;5.88;;
12597;SDS011;6364;53.590;9.956;2023-02-04T07:33:33;8.15;;;5.22;;
12597;SDS011;6364;53.590;9.956;2023-02-04T07:35:59;12.50;;;6.35;;
12597;SDS011;6364;53.590;9.956;2023-02-04T07:38:24;9.50;;;5.72;;
12597;SDS011;6364;53.590;9.956;2023-02-04T07:40:49;10.45;;;5.82;;
12597;SDS011;6364;53.590;9.956;2023-02-04T07:43:14;9.80;;;5.65;;
12597;SDS011;6364;53.590;9.956;2023-02-04T07:45:40;9.52;;;5.72;;
12597;SDS011;6364;53.590;9.956;2023-02-04T07:48:05;10.60;;;5.63;;
12597;SDS011;6364;53.590;9.956;2023-02-04T07:50:30;10.65;;;6.13;;
12597;SDS011;6364;53.590;9.956;2023-02-04T07:52:56;9.38;;;6.00;;
12597;SDS011;6364;53.590;9.956;2023-02-04T07:55:21;12.43;;;5.75;;
12597;SDS011;6364;53.590;9.956;2023-02-04T07:57:46;10.60;;;6.35;;
12597;SDS011;6364;53.590;9.956;2023-02-04T08:00:12;10.48;;;6.20;;
12597;SDS011;6364;53.590;9.956;2023-02-04T08:02:38;9.23;;;6.32;;
12597;SDS011;6364;53.590;9.956;2023-02-04T08:05:04;12.73;;;7.05;;
12597;SDS011;6364;53.590;9.956;2023-02-04T08:07:29;9.27;;;5.95;;
12597;SDS011;6364;53.590;9.956;2023-02-04T08:09:55;11.13;;;7.13;;
12597;SDS011;6364;53.590;9.956;2023-02-04T08:12:20;9.98;;;6.45;;
12597;SDS011;6364;53.590;9.956;2023-02-04T08:14:45;10.13;;;6.47;;
12597;SDS011;6364;53.590;9.956;2023-02-04T08:17:11;10.77;;;6.65;;
12597;SDS011;6364;53.590;9.956;2023-02-04T08:19:36;11.80;;;6.80;;
12597;SDS011;6364;53.590;9.956;2023-02-04T08:22:01;12.88;;;6.55;;
12597;SDS011;6364;53.590;9.956;2023-02-04T08:24:27;12.57;;;6.40;;
12597;SDS011;6364;53.590;9.956;2023-02-04T08:26:52;11.05;;;6.43;;
12597;SDS011;6364;53.590;9.956;2023-02-04T08:29:18;12.93;;;5.45;;
12597;SDS011;6364;53.590;9.956;2023-02-04T08:31:44;15.18;;;5.93;;
12597;SDS011;6364;53.590;9.956;2023-02-04T08:34:11;12.63;;;5.50;;
12597;SDS011;6364;53.590;9.956;2023-02-04T08:36:36;10.65;;;5.80;;
12597;SDS011;6364;53.590;9.956;2023-02-04T08:39:02;10.48;;;6.07;;
12597;SDS011;6364;53.590;9.956;2023-02-04T08:41:28;10.55;;;5.90;;
12597;SDS011;6364;53.590;9.956;2023-02-04T08:43:53;10.00;;;5.43;;
12597;SDS011;6364;53.590;9.956;2023-02-04T08:46:18;10.80;;;5.20;;
12597;SDS011;6364;53.590;9.956;2023-02-04T08:48:44;8.57;;;5.18;;
12597;SDS011;6364;53.590;9.956;2023-02-04T08:51:09;8.60;;;5.25;;
12597;SDS011;6364;53.590;9.956;2023-02-04T08:53:34;6.53;;;4.82;;
12597;SDS011;6364;53.590;9.956;2023-02-04T08:56:00;9.35;;;5.05;;
12597;SDS011;6364;53.590;9.956;2023-02-04T08:58:25;9.15;;;4.82;;
12597;SDS011;6364;53.590;9.956;2023-02-04T09:00:50;8.13;;;5.18;;
12597;SDS011;6364;53.590;9.956;2023-02-04T09:03:16;7.13;;;4.18;;
12597;SDS011;6364;53.590;9.956;2023-02-04T09:05:41;8.38;;;3.80;;
12597;SDS011;6364;53.590;9.956;2023-02-04T09:08:06;8.38;;;3.50;;
12597;SDS011;6364;53.590;9.956;2023-02-04T09:10:31;11.38;;;4.00;;
12597;SDS011;6364;53.590;9.956;2023-02-04T09:12:57;6.50;;;3.33;;
12597;SDS011;6364;53.590;9.956;2023-02-04T09:15:23;7.03;;;3.30;;
12597;SDS011;6364;53.590;9.956;2023-02-04T09:17:48;5.50;;;2.92;;
12597;SDS011;6364;53.590;9.956;2023-02-04T09:20:14;5.07;;;2.95;;
12597;SDS011;6364;53.590;9.956;2023-02-04T09:22:39;5.65;;;2.53;;
12597;SDS011;6364;53.590;9.956;2023-02-04T09:25:05;5.95;;;3.05;;
12597;SDS011;6364;53.590;9.956;2023-02-04T09:27:30;3.10;;;2.42;;
12597;SDS011;6364;53.590;9.956;2023-02-04T09:29:56;6.43;;;2.50;;
12597;SDS011;6364;53.590;9.956;2023-02-04T09:32:21;3.05;;;2.13;;
12597;SDS011;6364;53.590;9.956;2023-02-04T09:34:47;6.57;;;2.50;;
12597;SDS011;6364;53.590;9.956;2023-02-04T09:37:13;3.17;;;2.05;;
12597;SDS011;6364;53.590;9.956;2023-02-04T09:39:38;3.70;;;2.75;;
12597;SDS011;6364;53.590;9.956;2023-02-04T09:42:03;5.05;;;2.30;;
12597;SDS011;6364;53.590;9.956;2023-02-04T09:44:29;4.38;;;2.15;;
12597;SDS011;6364;53.590;9.956;2023-02-04T09:46:55;5.55;;;2.30;;
12597;SDS011;6364;53.590;9.956;2023-02-04T09:49:21;3.45;;;2.10;;
12597;SDS011;6364;53.590;9.956;2023-02-04T09:51:47;3.95;;;1.85;;
12597;SDS011;6364;53.590;9.956;2023-02-04T09:54:13;3.95;;;1.73;;
12597;SDS011;6364;53.590;9.956;2023-02-04T09:56:40;2.72;;;1.90;;
12597;SDS011;6364;53.590;9.956;2023-02-04T09:59:25;3.28;;;2.28;;
12597;SDS011;6364;53.590;9.956;2023-02-04T10:01:59;4.40;;;2.20;;
12597;SDS011;6364;53.590;9.956;2023-02-04T10:04:25;6.43;;;1.83;;
12597;SDS011;6364;53.590;9.956;2023-02-04T10:06:51;2.95;;;1.83;;
12597;SDS011;6364;53.590;9.956;2023-02-04T10:09:16;3.20;;;1.73;;
12597;SDS011;6364;53.590;9.956;2023-02-04T10:11:42;3.05;;;1.52;;
12597;SDS011;6364;53.590;9.956;2023-02-04T10:14:14;2.45;;;1.50;;
12597;SDS011;6364;53.590;9.956;2023-02-04T10:16:41;3.85;;;1.40;;
12597;SDS011;6364;53.590;9.956;2023-02-04T10:19:14;2.95;;;1.63;;
12597;SDS011;6364;53.590;9.956;2023-02-04T10:21:40;2.95;;;1.70;;
12597;SDS011;6364;53.590;9.956;2023-02-04T10:24:15;2.08;;;1.50;;
12597;SDS011;6364;53.590;9.956;2023-02-04T10:26:42;3.03;;;1.73;;
12597;SDS011;6364;53.590;9.956;2023-02-04T10:29:12;3.42;;;1.67;;
12597;SDS011;6364;53.590;9.956;2023-02-04T10:31:42;2.72;;;1.65;;
12597;SDS011;6364;53.590;9.956;2023-02-04T10:34:15;4.80;;;1.70;;
12597;SDS011;6364;53.590;9.956;2023-02-04T10:36:43;2.25;;;1.40;;
12597;SDS011;6364;53.590;9.956;2023-02-04T10:39:11;4.03;;;1.58;;
12597;SDS011;6364;53.590;9.956;2023-02-04T10:41:57;2.05;;;1.60;;
12597;SDS011;6364;53.590;9.956;2023-02-04T10:44:30;4.35;;;1.77;;
12597;SDS011;6364;53.590;9.956;2023-02-04T10:47:23;2.47;;;1.63;;
12597;SDS011;6364;53.590;9.956;2023-02-04T10:50:00;3.10;;;1.92;;
12597;SDS011;6364;53.590;9.956;2023-02-04T10:52:34;1.75;;;1.40;;
12597;SDS011;6364;53.590;9.956;2023-02-04T10:55:02;3.65;;;1.58;;
12597;SDS011;6364;53.590;9.956;2023-02-04T10:57:28;4.80;;;1.77;;
12597;SDS011;6364;53.590;9.956;2023-02-04T10:59:55;4.75;;;1.75;;
12597;SDS011;6364;53.590;9.956;2023-02-04T11:05:03;2.17;;;1.52;;
12597;SDS011;6364;53.590;9.956;2023-02-04T11:07:30;3.13;;;1.70;;
12597;SDS011;6364;53.590;9.956;2023-02-04T11:09:56;3.65;;;1.90;;
12597;SDS011;6364;53.590;9.956;2023-02-04T11:14:54;3.08;;;1.95;;
12597;SDS011;6364;53.590;9.956;2023-02-04T11:17:20;5.38;;;1.85;;
12597;SDS011;6364;53.590;9.956;2023-02-04T11:19:52;3.03;;;1.70;;
12597;SDS011;6364;53.590;9.956;2023-02-04T11:22:22;2.50;;;1.85;;
12597;SDS011;6364;53.590;9.956;2023-02-04T11:24:49;3.75;;;1.80;;
12597;SDS011;6364;53.590;9.956;2023-02-04T11:27:22;3.35;;;1.75;;
12597;SDS011;6364;53.590;9.956;2023-02-04T11:34:53;3.53;;;1.52;;
12597;SDS011;6364;53.590;9.956;2023-02-04T11:37:33;4.15;;;1.92;;
12597;SDS011;6364;53.590;9.956;2023-02-04T11:40:00;3.50;;;1.70;;
12597;SDS011;6364;53.590;9.956;2023-02-04T11:42:29;5.20;;;1.80;;
12597;SDS011;6364;53.590;9.956;2023-02-04T11:45:07;3.78;;;1.98;;
12597;SDS011;6364;53.590;9.956;2023-02-04T11:47:37;3.13;;;2.00;;
12597;SDS011;6364;53.590;9.956;2023-02-04T11:50:04;3.72;;;1.95;;
12597;SDS011;6364;53.590;9.956;2023-02-04T11:52:45;3.42;;;1.80;;
12597;SDS011;6364;53.590;9.956;2023-02-04T11:55:10;4.07;;;1.63;;
12597;SDS011;6364;53.590;9.956;2023-02-04T11:57:37;3.50;;;2.10;;
12597;SDS011;6364;53.590;9.956;2023-02-04T12:00:04;2.92;;;1.92;;
12597;SDS011;6364;53.590;9.956;2023-02-04T12:02:39;3.42;;;1.80;;
12597;SDS011;6364;53.590;9.956;2023-02-04T12:05:13;4.10;;;1.95;;
12597;SDS011;6364;53.590;9.956;2023-02-04T12:07:41;2.60;;;1.92;;
12597;SDS011;6364;53.590;9.956;2023-02-04T12:10:21;4.43;;;1.88;;
12597;SDS011;6364;53.590;9.956;2023-02-04T12:12:50;5.65;;;3.13;;
12597;SDS011;6364;53.590;9.956;2023-02-04T12:15:22;3.20;;;1.70;;
12597;SDS011;6364;53.590;9.956;2023-02-04T12:18:04;3.20;;;1.83;;
12597;SDS011;6364;53.590;9.956;2023-02-04T12:20:33;3.78;;;1.67;;
12597;SDS011;6364;53.590;9.956;2023-02-04T12:22:59;2.20;;;1.35;;
12597;SDS011;6364;53.590;9.956;2023-02-04T12:25:24;2.67;;;1.50;;
12597;SDS011;6364;53.590;9.956;2023-02-04T12:27:51;3.65;;;1.40;;
12597;SDS011;6364;53.590;9.956;2023-02-04T12:30:18;2.85;;;1.60;;
12597;SDS011;6364;53.590;9.956;2023-02-04T12:32:44;5.45;;;1.70;;
12597;SDS011;6364;53.590;9.956;2023-02-04T12:35:10;2.92;;;1.83;;
12597;SDS011;6364;53.590;9.956;2023-02-04T12:37:35;2.50;;;1.75;;
12597;SDS011;6364;53.590;9.956;2023-02-04T12:40:00;1.92;;;1.60;;
12597;SDS011;6364;53.590;9.956;2023-02-04T12:42:25;2.45;;;1.33;;
12597;SDS011;6364;53.590;9.956;2023-02-04T12:44:51;2.00;;;1.45;;
12597;SDS011;6364;53.590;9.956;2023-02-04T12:47:16;2.88;;;1.45;;
12597;SDS011;6364;53.590;9.956;2023-02-04T12:49:41;2.47;;;1.50;;
12597;SDS011;6364;53.590;9.956;2023-02-04T12:52:07;2.97;;;1.55;;
12597;SDS011;6364;53.590;9.956;2023-02-04T12:54:33;2.78;;;1.75;;
12597;SDS011;6364;53.590;9.956;2023-02-04T12:56:58;2.92;;;1.80;;
12597;SDS011;6364;53.590;9.956;2023-02-04T12:59:24;4.88;;;1.80;;
12597;SDS011;6364;53.590;9.956;2023-02-04T13:01:49;3.25;;;1.50;;
12597;SDS011;6364;53.590;9.956;2023-02-04T13:04:15;1.88;;;1.52;;
12597;SDS011;6364;53.590;9.956;2023-02-04T13:06:40;5.35;;;1.88;;
12597;SDS011;6364;53.590;9.956;2023-02-04T13:09:05;3.47;;;1.77;;
12597;SDS011;6364;53.590;9.956;2023-02-04T13:11:31;2.75;;;1.58;;
12597;SDS011;6364;53.590;9.956;2023-02-04T13:13:56;2.40;;;1.73;;
12597;SDS011;6364;53.590;9.956;2023-02-04T13:16:21;2.45;;;1.58;;
12597;SDS011;6364;53.590;9.956;2023-02-04T13:18:48;2.45;;;2.03;;
12597;SDS011;6364;53.590;9.956;2023-02-04T13:21:14;3.55;;;1.63;;
12597;SDS011;6364;53.590;9.956;2023-02-04T13:23:39;3.17;;;1.70;;
12597;SDS011;6364;53.590;9.956;2023-02-04T13:26:04;4.65;;;1.70;;
12597;SDS011;6364;53.590;9.956;2023-02-04T13:28:30;2.53;;;1.45;;
12597;SDS011;6364;53.590;9.956;2023-02-04T13:30:55;2.22;;;1.50;;
12597;SDS011;6364;53.590;9.956;2023-02-04T13:33:20;2.78;;;1.60;;
12597;SDS011;6364;53.590;9.956;2023-02-04T13:35:45;2.85;;;1.40;;
12597;SDS011;6364;53.590;9.956;2023-02-04T13:38:11;3.20;;;1.63;;
12597;SDS011;6364;53.590;9.956;2023-02-04T13:40:36;3.35;;;1.45;;
12597;SDS011;6364;53.590;9.956;2023-02-04T13:43:03;1.33;;;1.23;;
12597;SDS011;6364;53.590;9.956;2023-02-04T13:45:28;3.13;;;1.58;;
12597;SDS011;6364;53.590;9.956;2023-02-04T13:47:53;3.33;;;1.50;;
12597;SDS011;6364;53.590;9.956;2023-02-04T13:50:19;3.03;;;1.75;;
12597;SDS011;6364;53.590;9.956;2023-02-04T13:52:44;5.13;;;1.40;;
12597;SDS011;6364;53.590;9.956;2023-02-04T13:55:09;1.48;;;1.30;;
12597;SDS011;6364;53.590;9.956;2023-02-04T13:57:35;1.85;;;1.50;;
12597;SDS011;6364;53.590;9.956;2023-02-04T14:00:02;3.60;;;1.85;;
12597;SDS011;6364;53.590;9.956;2023-02-04T14:02:28;2.22;;;1.60;;
12597;SDS011;6364;53.590;9.956;2023-02-04T14:04:53;2.67;;;1.70;;
12597;SDS011;6364;53.590;9.956;2023-02-04T14:07:19;2.42;;;1.63;;
12597;SDS011;6364;53.590;9.956;2023-02-04T14:09:44;6.50;;;1.98;;
12597;SDS011;6364;53.590;9.956;2023-02-04T14:12:12;3.08;;;1.98;;
12597;SDS011;6364;53.590;9.956;2023-02-04T14:14:37;3.72;;;1.83;;
12597;SDS011;6364;53.590;9.956;2023-02-04T14:17:02;3.13;;;2.03;;
12597;SDS011;6364;53.590;9.956;2023-02-04T14:19:28;3.13;;;2.00;;
12597;SDS011;6364;53.590;9.956;2023-02-04T14:21:53;4.85;;;2.75;;
12597;SDS011;6364;53.590;9.956;2023-02-04T14:24:18;6.78;;;2.47;;
12597;SDS011;6364;53.590;9.956;2023-02-04T14:26:44;3.42;;;1.70;;
12597;SDS011;6364;53.590;9.956;2023-02-04T14:29:10;4.32;;;2.15;;
12597;SDS011;6364;53.590;9.956;2023-02-04T14:31:35;3.08;;;2.10;;
12597;SDS011;6364;53.590;9.956;2023-02-04T14:34:01;3.55;;;2.15;;
12597;SDS011;6364;53.590;9.956;2023-02-04T14:36:27;2.92;;;1.80;;
12597;SDS011;6364;53.590;9.956;2023-02-04T14:38:52;4.43;;;2.08;;
12597;SDS011;6364;53.590;9.956;2023-02-04T14:41:17;3.30;;;1.70;;
12597;SDS011;6364;53.590;9.956;2023-02-04T14:43:45;3.28;;;1.40;;
12597;SDS011;6364;53.590;9.956;2023-02-04T14:46:10;3.83;;;1.40;;
12597;SDS011;6364;53.590;9.956;2023-02-04T14:48:35;3.42;;;1.80;;
12597;SDS011;6364;53.590;9.956;2023-02-04T14:51:01;4.28;;;1.70;;
12597;SDS011;6364;53.590;9.956;2023-02-04T14:53:26;3.58;;;1.60;;
12597;SDS011;6364;53.590;9.956;2023-02-04T14:55:51;2.67;;;1.58;;
12597;SDS011;6364;53.590;9.956;2023-02-04T14:58:17;3.30;;;1.67;;
12597;SDS011;6364;53.590;9.956;2023-02-04T15:00:42;1.65;;;1.30;;
12597;SDS011;6364;53.590;9.956;2023-02-04T15:03:07;2.45;;;1.63;;
12597;SDS011;6364;53.590;9.956;2023-02-04T15:05:33;2.78;;;1.50;;
12597;SDS011;6364;53.590;9.956;2023-02-04T15:07:58;3.45;;;1.77;;